METAR AND TAF INFORMATION
METAR FOR LICJ
ADDS - METARS form results

(1858 UTC 23 March 2019)
Data provider http://aviationweather.gov/metar/data/
 
METAR text: LICJ 231850Z 05007KT CAVOK 14/11 Q1021
Conditions at: LICJ (PALERMO/POINT RA, IT) observed 1850 UTC 23 March 2019
Temperature: 14.0°C (57°F)
Dewpoint: 11.0°C (52°F) [RH = 82%]
Pressure (altimeter): 30.15 inches Hg (1021.0 mb)
Winds: from the NE (50 degrees) at 8 MPH (7 knots; 3.6 m/s)
Visibility: 6 or more miles (10+ km)
Ceiling: ceiling and visibility are OK
Clouds: unknown
Weather: no significant weather observed at this time

METAR text: LICJ 231820Z 06007KT CAVOK 14/11 Q1020
Conditions at: LICJ (PALERMO/POINT RA, IT) observed 1820 UTC 23 March 2019
Temperature: 14.0°C (57°F)
Dewpoint: 11.0°C (52°F) [RH = 82%]
Pressure (altimeter): 30.12 inches Hg (1020.0 mb)
Winds: from the ENE (60 degrees) at 8 MPH (7 knots; 3.6 m/s)
Visibility: 6 or more miles (10+ km)
Ceiling: ceiling and visibility are OK
Clouds: unknown
Weather: no significant weather observed at this time

Forecast for: LICJ (PALERMO/POINT RA, IT)
Text: TAF LICJ 231700Z 2318/2418 06012KT 9999 SCT040
Forecast period: 1800 UTC 23 March 2019 to 1800 UTC 24 March 2019
Forecast type: FROM: standard forecast or significant change
Winds: from the ENE (60 degrees) at 14 MPH (12 knots; 6.2 m/s)
Visibility: 6 or more miles 10+ km)
Ceiling: at least 12,000 feet AGL
Clouds: scattered clouds at 4000 feet AGL
Weather: no significant weather forecast for this period
Text: BECMG 2316/2318 VRB05KT
Forecast period: 1600 UTC 23 March 2019 to 1800 UTC 24 March 2019
Forecast type: BECOMING: Conditions expected to become as follows by 1800 UTC 23 March 2019
Winds: variable direction winds at 6 MPH (5 knots; 2.6 m/s)
Visibility: 6 or more miles 10+ km)
Ceiling: at least 12,000 feet AGL
Clouds: scattered clouds at 4000 feet AGL
Weather: no significant weather forecast for this period

 AIRPORT MAP

 RUNWAY INFORMATION
Runway 02 Runway length 6804 ft Runway width 148 ft
Runway elevation 42 ft Runway displaced threshold 10 ft Runway heading 24
Runway 20 Runway length 6804 ft Runway width 148 ft
Runway elevation 22 ft Runway displaced threshold 10 ft Runway heading 204
Runway 07 Runway length 10912 ft Runway width 197 ft
Runway elevation 33 ft Runway displaced threshold 404 ft Runway heading 67
Runway 25 Runway length 10912 ft Runway width 197 ft
Runway elevation 50 ft Runway displaced threshold 679 ft Runway heading 247

 AIRPORT FREQUENCIES
Type APP Name APP Frequency 120.2 MHZ
Type GND Name RAISI GND Frequency 121.625 MHZ
Type TWR Name RAISI TWR Frequency 119.05 MHZ

 AIRPORT NEAR NAVIGATION AIDS
Type VOR-DME Name Palermo Frequency 112300 KHZ
Type NDB Name Palermo Frequency 356 KHZ
Type VOR-DME Name Raisi Frequency 113000 KHZ
Type NDB Name Raisi Frequency 329 KHZ



Powered by Virtual Airlines Manager [v2.6.2]